Time;durP1;ratioP1;P1;durP2;ratioP2;P2;SDS_P1;SDS_P2;PMS_P1;PMS_P2;Temp;Humidity;BMP_temperature;BMP_pressure;BME280_temperature;BME280_humidity;BME280_pressure;Samples;Min_cycle;Max_cycle;Signal;HPM_P1;HPM_P2
2023/04/19 00:01:38;;;;;;;4.67;4.07;;;11.40;99.90;;;;;;4986310;28;20221;-70
2023/04/19 00:04:04;;;;;;;8.20;5.03;;;11.40;99.90;;;;;;4994253;28;20221;-71
2023/04/19 00:06:30;;;;;;;6.90;5.20;;;11.40;99.90;;;;;;4992084;28;20449;-70
2023/04/19 00:08:56;;;;;;;6.43;5.10;;;11.30;99.90;;;;;;4982454;28;20224;-69
2023/04/19 00:11:23;;;;;;;7.67;5.33;;;11.30;99.90;;;;;;4995890;28;20468;-71
2023/04/19 00:13:48;;;;;;;6.07;5.00;;;11.30;99.90;;;;;;4981625;28;20231;-71
2023/04/19 00:16:15;;;;;;;6.20;5.27;;;11.30;99.90;;;;;;4983245;28;20449;-71
2023/04/19 00:18:41;;;;;;;6.17;4.53;;;11.30;99.90;;;;;;5003284;28;20786;-70
2023/04/19 00:21:07;;;;;;;6.20;4.73;;;11.30;99.90;;;;;;5000542;28;20481;-71
2023/04/19 00:23:34;;;;;;;5.03;4.53;;;11.30;99.90;;;;;;5004346;28;20458;-71
2023/04/19 00:26:02;;;;;;;7.27;5.10;;;11.40;99.90;;;;;;4999591;28;20485;-70
2023/04/19 00:28:28;;;;;;;6.73;4.97;;;11.40;99.90;;;;;;4999475;28;20480;-69
2023/04/19 00:30:54;;;;;;;5.60;4.60;;;11.30;99.90;;;;;;5007387;28;20472;-68
2023/04/19 00:33:19;;;;;;;7.80;5.17;;;11.40;99.90;;;;;;5009642;28;20214;-71
2023/04/19 00:35:45;;;;;;;7.30;5.40;;;11.30;99.90;;;;;;5010601;28;20228;-71
2023/04/19 00:38:12;;;;;;;5.03;4.33;;;11.30;99.90;;;;;;5006636;28;20230;-70
2023/04/19 00:40:38;;;;;;;4.73;4.23;;;11.30;99.90;;;;;;5003486;28;20461;-69
2023/04/19 00:43:04;;;;;;;7.00;4.13;;;11.30;99.90;;;;;;5002970;28;20217;-70
2023/04/19 00:45:32;;;;;;;6.10;4.77;;;11.30;99.90;;;;;;4988906;28;20209;-70
2023/04/19 00:47:58;;;;;;;6.40;5.10;;;11.20;99.90;;;;;;4999113;28;20217;-70
2023/04/19 00:50:24;;;;;;;7.67;5.50;;;11.30;99.90;;;;;;5003547;28;20476;-71
2023/04/19 00:52:52;;;;;;;5.30;4.00;;;11.30;99.90;;;;;;4987940;28;20986;-70
2023/04/19 00:55:18;;;;;;;6.60;5.00;;;11.20;99.90;;;;;;5004023;28;20273;-71
2023/04/19 00:57:45;;;;;;;6.20;4.50;;;11.20;99.90;;;;;;4999187;28;20829;-70
2023/04/19 01:00:11;;;;;;;9.43;5.10;;;11.20;99.90;;;;;;4983257;28;20217;-72
2023/04/19 01:02:37;;;;;;;6.03;4.13;;;11.20;99.90;;;;;;5004026;28;20458;-69
2023/04/19 01:05:03;;;;;;;7.33;5.20;;;11.20;99.90;;;;;;4992383;28;20518;-70
2023/04/19 01:07:28;;;;;;;5.80;4.30;;;11.20;99.90;;;;;;5010710;28;20300;-71
2023/04/19 01:09:54;;;;;;;5.77;4.57;;;11.20;99.90;;;;;;5008181;28;20704;-70
2023/04/19 01:12:21;;;;;;;5.60;4.50;;;11.20;99.90;;;;;;5003763;28;20296;-71
2023/04/19 01:14:47;;;;;;;6.57;4.93;;;11.20;99.90;;;;;;5009315;28;20445;-70
2023/04/19 01:17:13;;;;;;;7.63;4.40;;;11.20;99.90;;;;;;4993278;28;20464;-70
2023/04/19 01:19:39;;;;;;;5.43;4.20;;;11.20;99.90;;;;;;5010158;28;20777;-70
2023/04/19 01:22:05;;;;;;;6.53;4.53;;;11.20;99.90;;;;;;5007207;28;20302;-70
2023/04/19 01:24:31;;;;;;;6.87;6.13;;;11.20;99.90;;;;;;5004828;28;20223;-70
2023/04/19 01:26:57;;;;;;;7.10;4.53;;;11.30;99.90;;;;;;5008676;28;20445;-69
2023/04/19 01:29:23;;;;;;;4.43;3.97;;;11.20;99.90;;;;;;4992116;28;20520;-71
2023/04/19 01:31:52;;;;;;;6.93;4.23;;;11.20;99.90;;;;;;4993160;28;20207;-71
2023/04/19 01:34:24;;;;;;;5.40;4.00;;;11.20;99.90;;;;;;5007409;28;20689;-71
2023/04/19 01:36:50;;;;;;;6.63;4.80;;;11.20;99.90;;;;;;5007763;28;20537;-69
2023/04/19 01:39:16;;;;;;;4.63;3.73;;;11.20;99.90;;;;;;4998190;28;20514;-71
2023/04/19 01:41:42;;;;;;;3.80;3.50;;;11.20;99.90;;;;;;5009324;28;20222;-70
2023/04/19 01:44:08;;;;;;;6.07;4.10;;;11.10;99.90;;;;;;5006217;28;20465;-70
2023/04/19 01:46:35;;;;;;;7.97;5.07;;;11.20;99.90;;;;;;4987423;28;20441;-70
2023/04/19 01:49:01;;;;;;;6.47;4.87;;;11.20;99.90;;;;;;5009325;28;20206;-70
2023/04/19 01:51:26;;;;;;;5.67;4.60;;;11.20;99.90;;;;;;4999163;28;20469;-71
2023/04/19 01:53:53;;;;;;;5.40;4.70;;;11.10;99.90;;;;;;5004895;28;20315;-71
2023/04/19 01:56:20;;;;;;;6.13;5.37;;;11.20;99.90;;;;;;5006526;28;20461;-70
2023/04/19 01:58:46;;;;;;;7.20;5.30;;;11.20;99.90;;;;;;5004678;28;20990;-71
2023/04/19 02:01:12;;;;;;;4.63;4.23;;;11.20;99.90;;;;;;5002182;28;20474;-71
2023/04/19 02:03:38;;;;;;;7.87;5.80;;;11.20;99.90;;;;;;4993053;28;20232;-69
2023/04/19 02:06:04;;;;;;;7.07;4.87;;;11.20;99.90;;;;;;5009091;28;20308;-69
2023/04/19 02:08:30;;;;;;;4.87;4.37;;;11.10;99.90;;;;;;5008195;28;20829;-70
2023/04/19 02:10:56;;;;;;;7.70;5.23;;;11.10;99.90;;;;;;5006164;28;20546;-70
2023/04/19 02:13:22;;;;;;;7.23;4.90;;;11.10;99.90;;;;;;5011924;28;21312;-70
2023/04/19 02:15:48;;;;;;;5.57;4.73;;;11.20;99.90;;;;;;4993932;28;20744;-70
2023/04/19 02:18:13;;;;;;;6.93;5.40;;;11.10;99.90;;;;;;5011089;28;20316;-71
2023/04/19 02:20:39;;;;;;;7.30;5.10;;;11.10;99.90;;;;;;4990963;28;20735;-70
2023/04/19 02:23:05;;;;;;;8.60;5.57;;;11.10;99.90;;;;;;5006771;28;20214;-70
2023/04/19 02:25:30;;;;;;;7.27;5.70;;;11.10;99.90;;;;;;4991693;28;20222;-71
2023/04/19 02:27:56;;;;;;;9.10;5.60;;;11.00;99.90;;;;;;5007472;28;20222;-71
2023/04/19 02:30:22;;;;;;;8.07;5.73;;;11.10;99.90;;;;;;5007107;28;20233;-71
2023/04/19 02:32:49;;;;;;;7.30;5.40;;;11.10;99.90;;;;;;4997335;28;20226;-70
2023/04/19 02:35:15;;;;;;;6.90;5.07;;;11.10;99.90;;;;;;4990526;28;20470;-70
2023/04/19 02:37:41;;;;;;;7.67;5.70;;;11.00;99.90;;;;;;5008075;28;20241;-68
2023/04/19 02:40:07;;;;;;;7.10;5.50;;;11.00;99.90;;;;;;5008315;28;20473;-70
2023/04/19 02:42:33;;;;;;;7.63;5.83;;;11.00;99.90;;;;;;5005552;28;20234;-70
2023/04/19 02:44:59;;;;;;;8.97;6.17;;;11.00;99.90;;;;;;5008355;28;21160;-70
2023/04/19 02:47:24;;;;;;;8.07;5.63;;;11.00;99.90;;;;;;5003288;28;20210;-70
2023/04/19 02:49:50;;;;;;;8.50;6.03;;;11.00;99.90;;;;;;5002001;28;20222;-70
2023/04/19 02:52:17;;;;;;;8.60;5.87;;;11.00;99.90;;;;;;4989269;28;20222;-70
2023/04/19 02:54:42;;;;;;;6.50;5.30;;;11.00;99.90;;;;;;5003627;28;20520;-68
2023/04/19 02:57:08;;;;;;;7.57;5.90;;;11.00;99.90;;;;;;4996493;28;20238;-69
2023/04/19 02:59:34;;;;;;;7.30;5.57;;;11.00;99.90;;;;;;4988148;28;20735;-70
2023/04/19 03:02:02;;;;;;;10.77;6.10;;;10.90;99.90;;;;;;4991456;28;20814;-70
2023/04/19 03:04:28;;;;;;;8.70;5.90;;;10.90;99.90;;;;;;4986581;28;20467;-70
2023/04/19 03:06:54;;;;;;;9.17;5.70;;;10.90;99.90;;;;;;5007719;28;20275;-70
2023/04/19 03:09:20;;;;;;;10.30;5.60;;;10.90;99.90;;;;;;5007556;28;20280;-70
2023/04/19 03:11:45;;;;;;;7.60;6.37;;;10.90;99.90;;;;;;5005548;28;20471;-70
2023/04/19 03:14:11;;;;;;;8.73;6.60;;;10.90;99.90;;;;;;4994619;28;20209;-75
2023/04/19 03:16:37;;;;;;;11.77;5.93;;;10.90;99.90;;;;;;5004595;28;20214;-69
2023/04/19 03:19:03;;;;;;;9.97;6.80;;;10.90;99.90;;;;;;5002345;28;20835;-70
2023/04/19 03:21:34;;;;;;;8.40;6.00;;;10.90;99.90;;;;;;4991906;28;20209;-70
2023/04/19 03:24:00;;;;;;;9.17;5.97;;;10.90;99.90;;;;;;5007782;28;20483;-68
2023/04/19 03:26:26;;;;;;;8.23;5.93;;;10.90;99.90;;;;;;5001397;28;20553;-70
2023/04/19 03:28:55;;;;;;;6.60;5.30;;;10.90;99.90;;;;;;5004997;28;20453;-70
2023/04/19 03:31:39;;;;;;;7.10;5.63;;;10.90;99.90;;;;;;5004146;28;20514;-70
2023/04/19 03:34:05;;;;;;;9.37;6.77;;;10.90;99.90;;;;;;5002145;28;20457;-71
2023/04/19 03:36:39;;;;;;;8.97;6.90;;;10.90;99.90;;;;;;4989411;28;20496;-69
2023/04/19 03:39:05;;;;;;;7.50;6.00;;;10.90;99.90;;;;;;5002998;28;20472;-70
2023/04/19 03:41:31;;;;;;;9.87;6.27;;;10.90;99.90;;;;;;5006056;28;20464;-71
2023/04/19 03:44:20;;;;;;;7.97;6.00;;;10.90;99.90;;;;;;5006518;28;20467;-71
2023/04/19 03:46:47;;;;;;;7.77;6.00;;;10.90;99.90;;;;;;5008783;28;20455;-71
2023/04/19 03:49:15;;;;;;;7.60;6.20;;;10.80;99.90;;;;;;5009454;28;20461;-71
2023/04/19 03:51:44;;;;;;;9.37;6.03;;;10.80;99.90;;;;;;4997459;28;20974;-70
2023/04/19 03:54:11;;;;;;;9.57;6.43;;;10.80;99.90;;;;;;5003818;28;20580;-72
2023/04/19 03:56:36;;;;;;;9.77;6.00;;;10.80;99.90;;;;;;4992017;28;20572;-71
2023/04/19 03:59:02;;;;;;;7.50;5.80;;;10.80;99.90;;;;;;5007818;28;20457;-71
2023/04/19 04:01:31;;;;;;;7.30;6.00;;;10.80;99.90;;;;;;5013628;28;20244;-71
2023/04/19 04:03:57;;;;;;;7.23;5.70;;;10.80;99.90;;;;;;4995215;28;20456;-71
2023/04/19 04:06:23;;;;;;;8.10;5.80;;;10.80;99.90;;;;;;5011397;28;20509;-71
2023/04/19 04:08:49;;;;;;;7.90;6.03;;;10.80;99.90;;;;;;5010463;28;20544;-71
2023/04/19 04:11:15;;;;;;;8.37;5.93;;;10.80;99.90;;;;;;5009547;28;20305;-71
2023/04/19 04:13:42;;;;;;;9.90;6.50;;;10.90;99.90;;;;;;5011363;28;20296;-71
2023/04/19 04:16:15;;;;;;;7.77;6.17;;;10.90;99.90;;;;;;5009248;28;20911;-70
2023/04/19 04:18:41;;;;;;;9.70;6.10;;;10.90;99.90;;;;;;5009093;28;20536;-70
2023/04/19 04:21:09;;;;;;;9.40;6.60;;;10.90;99.90;;;;;;5010952;28;20892;-70
2023/04/19 04:23:38;;;;;;;9.17;6.43;;;10.80;99.90;;;;;;5011293;28;20997;-69
2023/04/19 04:26:08;;;;;;;10.87;7.40;;;10.80;99.90;;;;;;5011334;28;20829;-71
2023/04/19 04:28:53;;;;;;;8.30;5.90;;;10.80;99.90;;;;;;5008704;28;20460;-69
2023/04/19 04:31:19;;;;;;;7.83;5.80;;;10.80;99.90;;;;;;4994508;28;20440;-71
2023/04/19 04:33:46;;;;;;;8.80;6.40;;;10.90;99.90;;;;;;4995613;28;20214;-70
2023/04/19 04:36:13;;;;;;;10.50;7.10;;;10.90;99.90;;;;;;5010509;28;20493;-72
2023/04/19 04:38:40;;;;;;;8.70;5.70;;;10.90;99.90;;;;;;4997561;28;20460;-68
2023/04/19 04:41:06;;;;;;;8.73;6.50;;;10.80;99.90;;;;;;5007574;28;20524;-71
2023/04/19 04:43:33;;;;;;;8.90;6.43;;;10.90;99.90;;;;;;5003723;28;20859;-71
2023/04/19 04:45:59;;;;;;;8.13;5.93;;;10.90;99.90;;;;;;4994168;28;20225;-71
2023/04/19 04:48:30;;;;;;;9.27;6.50;;;10.90;99.90;;;;;;5005414;28;20528;-71
2023/04/19 04:50:56;;;;;;;9.43;6.43;;;10.90;99.90;;;;;;5008886;28;20458;-70
2023/04/19 04:53:26;;;;;;;8.10;5.37;;;10.90;99.90;;;;;;4993813;28;20838;-70
2023/04/19 04:55:53;;;;;;;10.50;6.33;;;10.90;99.90;;;;;;4998609;28;20454;-71
2023/04/19 04:58:19;;;;;;;10.60;6.93;;;10.90;99.90;;;;;;5010028;28;20493;-70
2023/04/19 05:00:53;;;;;;;8.83;5.87;;;10.90;99.90;;;;;;5009120;28;20472;-70
2023/04/19 05:03:19;;;;;;;9.20;6.33;;;10.90;99.90;;;;;;4990841;28;20484;-70
2023/04/19 05:05:51;;;;;;;6.43;5.60;;;10.90;99.90;;;;;;5000336;28;20468;-70
2023/04/19 05:08:17;;;;;;;10.03;6.07;;;10.90;99.90;;;;;;4986000;28;20462;-71
2023/04/19 05:10:43;;;;;;;10.90;6.80;;;11.00;99.90;;;;;;5000346;28;20223;-71
2023/04/19 05:13:11;;;;;;;7.90;5.63;;;11.00;99.90;;;;;;5000713;28;20556;-75
2023/04/19 05:15:39;;;;;;;9.77;6.20;;;11.00;99.90;;;;;;4999123;28;20431;-70
2023/04/19 05:18:05;;;;;;;9.10;5.93;;;11.00;99.90;;;;;;4992997;28;20820;-69
2023/04/19 05:20:32;;;;;;;11.00;6.30;;;11.00;99.90;;;;;;5008530;28;20473;-70
2023/04/19 05:23:10;;;;;;;6.80;5.87;;;10.90;99.90;;;;;;5007532;28;20473;-71
2023/04/19 05:25:36;;;;;;;11.07;7.70;;;10.90;99.90;;;;;;5008681;28;20504;-70
2023/04/19 05:28:03;;;;;;;6.33;5.50;;;11.00;99.90;;;;;;4987095;28;20527;-71
2023/04/19 05:30:35;;;;;;;8.67;5.90;;;11.00;99.90;;;;;;5009075;28;20484;-71
2023/04/19 05:33:01;;;;;;;14.47;6.63;;;11.00;99.90;;;;;;4992580;28;20453;-71
2023/04/19 05:35:27;;;;;;;9.67;6.90;;;11.00;99.90;;;;;;5009414;28;20457;-70
2023/04/19 05:37:54;;;;;;;8.43;6.13;;;11.00;99.90;;;;;;5004360;28;20461;-69
2023/04/19 05:40:21;;;;;;;11.03;6.80;;;11.00;99.90;;;;;;4992947;28;21004;-70
2023/04/19 05:42:47;;;;;;;10.40;7.20;;;11.00;99.90;;;;;;5009613;28;20833;-70
2023/04/19 05:45:14;;;;;;;6.53;5.40;;;11.00;99.90;;;;;;5009184;28;20461;-71
2023/04/19 05:47:40;;;;;;;10.07;7.00;;;11.00;99.90;;;;;;5008664;28;20222;-69
2023/04/19 05:50:24;;;;;;;13.70;6.90;;;11.00;99.90;;;;;;5009572;28;20479;-70
2023/04/19 05:53:12;;;;;;;10.60;6.27;;;11.00;99.90;;;;;;5009593;28;20478;-70
2023/04/19 05:55:38;;;;;;;11.13;6.67;;;10.90;99.90;;;;;;4995083;28;21149;-69
2023/04/19 05:58:04;;;;;;;10.20;7.03;;;11.00;99.90;;;;;;4994307;28;20272;-70
2023/04/19 06:00:30;;;;;;;10.43;7.47;;;11.00;99.90;;;;;;5006334;28;20225;-70
2023/04/19 06:03:04;;;;;;;10.23;7.17;;;11.00;99.90;;;;;;5008914;28;20220;-71
2023/04/19 06:05:30;;;;;;;11.07;7.40;;;11.00;99.90;;;;;;5008965;28;20467;-70
2023/04/19 06:07:56;;;;;;;13.27;8.00;;;11.00;99.90;;;;;;5001850;28;20449;-72
2023/04/19 06:10:22;;;;;;;9.40;7.20;;;11.00;99.90;;;;;;4991490;28;20225;-71
2023/04/19 06:12:48;;;;;;;10.00;7.17;;;11.00;99.90;;;;;;4992273;28;20444;-71
2023/04/19 06:15:14;;;;;;;12.30;7.90;;;11.00;99.90;;;;;;5005560;28;20319;-71
2023/04/19 06:17:40;;;;;;;9.20;6.87;;;11.00;99.90;;;;;;4997819;28;20234;-70
2023/04/19 06:20:07;;;;;;;9.93;7.27;;;11.00;99.90;;;;;;5000218;28;20474;-69
2023/04/19 06:22:32;;;;;;;9.17;7.37;;;11.00;99.90;;;;;;5004551;28;20214;-70
2023/04/19 06:24:59;;;;;;;12.07;7.57;;;11.00;99.90;;;;;;5005862;28;20904;-71
2023/04/19 06:27:26;;;;;;;11.03;7.43;;;11.00;99.90;;;;;;5008288;28;20217;-71
2023/04/19 06:29:51;;;;;;;13.10;7.83;;;11.00;99.90;;;;;;5002135;28;20988;-71
2023/04/19 06:32:17;;;;;;;12.80;8.27;;;11.00;99.90;;;;;;5007580;28;20461;-71
2023/04/19 06:34:43;;;;;;;11.00;8.17;;;11.00;99.90;;;;;;5005481;28;20218;-70
2023/04/19 06:37:08;;;;;;;10.80;8.07;;;11.00;99.90;;;;;;5000993;28;20214;-70
2023/04/19 06:39:34;;;;;;;13.07;8.43;;;11.10;99.90;;;;;;5002189;28;20248;-70
2023/04/19 06:42:01;;;;;;;12.53;8.00;;;11.10;99.90;;;;;;4990468;28;20218;-70
2023/04/19 06:44:27;;;;;;;10.17;7.30;;;11.10;99.90;;;;;;5003686;28;20202;-70
2023/04/19 06:46:53;;;;;;;10.87;8.00;;;11.10;99.90;;;;;;5009200;28;20471;-71
2023/04/19 06:49:18;;;;;;;10.33;7.10;;;11.10;99.90;;;;;;5007351;28;20228;-69
2023/04/19 06:51:44;;;;;;;7.93;7.03;;;11.10;99.90;;;;;;4991878;28;20301;-71
2023/04/19 06:54:10;;;;;;;11.73;8.53;;;11.10;99.90;;;;;;4994467;28;20224;-71
2023/04/19 06:56:41;;;;;;;10.93;8.07;;;11.20;99.90;;;;;;5006197;28;20220;-70
2023/04/19 06:59:06;;;;;;;12.07;8.53;;;11.20;99.90;;;;;;5003506;28;20239;-71
2023/04/19 07:01:32;;;;;;;9.83;7.03;;;11.20;99.90;;;;;;5005671;28;20443;-72
2023/04/19 07:03:58;;;;;;;8.97;6.30;;;11.20;99.90;;;;;;5007038;28;20225;-71
2023/04/19 07:06:23;;;;;;;12.50;8.30;;;11.20;99.90;;;;;;5006771;28;20700;-71
2023/04/19 07:08:49;;;;;;;13.10;8.27;;;11.20;99.90;;;;;;5007458;28;20248;-71
2023/04/19 07:11:15;;;;;;;15.30;9.60;;;11.20;99.90;;;;;;5007292;28;20210;-71
2023/04/19 07:13:40;;;;;;;11.27;7.60;;;11.20;99.90;;;;;;5007424;28;20226;-70
2023/04/19 07:16:06;;;;;;;9.43;7.13;;;11.20;99.90;;;;;;5003406;28;20217;-70
2023/04/19 07:18:32;;;;;;;14.00;8.23;;;11.20;99.90;;;;;;5007536;28;20233;-72
2023/04/19 07:20:58;;;;;;;10.90;7.77;;;11.30;99.90;;;;;;5005381;28;20476;-69
2023/04/19 07:23:23;;;;;;;10.90;7.60;;;11.30;99.90;;;;;;5003208;28;20250;-72
2023/04/19 07:25:49;;;;;;;10.87;7.97;;;11.30;99.90;;;;;;5006431;28;20276;-70
2023/04/19 07:28:15;;;;;;;12.13;8.00;;;11.30;99.90;;;;;;5006605;28;20214;-71
2023/04/19 07:30:41;;;;;;;10.50;7.27;;;11.30;99.90;;;;;;5007721;28;20225;-70
2023/04/19 07:33:07;;;;;;;8.80;6.90;;;11.30;99.90;;;;;;5006182;28;20304;-71
2023/04/19 07:35:34;;;;;;;10.33;7.33;;;11.30;99.90;;;;;;5005575;28;20218;-71
2023/04/19 07:38:00;;;;;;;10.40;7.90;;;11.30;99.90;;;;;;5007852;28;20998;-70
2023/04/19 07:40:26;;;;;;;8.90;6.67;;;11.30;99.90;;;;;;5021720;28;20476;-71
2023/04/19 07:42:54;;;;;;;10.50;7.03;;;11.40;99.90;;;;;;5003333;28;20951;-71
2023/04/19 07:45:20;;;;;;;10.23;7.33;;;11.40;99.90;;;;;;5001143;28;20225;-71
2023/04/19 07:47:46;;;;;;;9.30;6.43;;;11.40;99.90;;;;;;4998567;28;20450;-70
2023/04/19 07:50:11;;;;;;;8.17;6.10;;;11.40;99.90;;;;;;5005986;28;20798;-71
2023/04/19 07:52:37;;;;;;;10.80;6.50;;;11.40;99.90;;;;;;5004118;28;20229;-71
2023/04/19 07:55:03;;;;;;;12.10;6.93;;;11.40;99.90;;;;;;5002297;28;20272;-69
2023/04/19 07:57:28;;;;;;;10.37;6.40;;;11.40;99.90;;;;;;5001018;28;20289;-71
2023/04/19 07:59:56;;;;;;;9.30;6.30;;;11.40;99.90;;;;;;5004571;28;20485;-71
2023/04/19 08:02:24;;;;;;;11.90;8.07;;;11.40;99.90;;;;;;5002517;28;20688;-70
2023/04/19 08:04:50;;;;;;;9.03;6.23;;;11.40;99.90;;;;;;5006471;28;20457;-71
2023/04/19 08:07:16;;;;;;;8.37;6.20;;;11.40;99.90;;;;;;5001320;28;20460;-70
2023/04/19 08:09:42;;;;;;;8.23;5.17;;;11.40;99.90;;;;;;4999575;28;20428;-71
2023/04/19 08:12:08;;;;;;;7.00;5.33;;;11.40;99.90;;;;;;5003921;28;20452;-71
2023/04/19 08:14:33;;;;;;;7.90;5.80;;;11.40;99.90;;;;;;4983821;28;20250;-72
2023/04/19 08:16:59;;;;;;;12.27;5.80;;;11.40;99.90;;;;;;4995857;28;20271;-71
2023/04/19 08:19:25;;;;;;;8.97;5.67;;;11.50;99.90;;;;;;4992717;28;20217;-71
2023/04/19 08:21:50;;;;;;;7.80;5.47;;;11.50;99.90;;;;;;4997048;28;20712;-71
2023/04/19 08:24:16;;;;;;;6.57;5.07;;;11.50;99.90;;;;;;4996621;28;20704;-71
2023/04/19 08:26:41;;;;;;;9.30;5.17;;;11.50;99.90;;;;;;4993617;28;20303;-71
2023/04/19 08:29:07;;;;;;;10.60;6.00;;;11.60;99.90;;;;;;4999419;28;20214;-70
2023/04/19 08:31:33;;;;;;;5.20;4.67;;;11.60;99.90;;;;;;4993882;28;20225;-70
2023/04/19 08:33:59;;;;;;;6.33;5.00;;;11.60;99.90;;;;;;4990641;28;20434;-70
2023/04/19 08:36:26;;;;;;;5.43;4.00;;;11.60;99.90;;;;;;4979872;28;20277;-71
2023/04/19 08:38:52;;;;;;;8.17;5.80;;;11.60;99.90;;;;;;5007036;28;20548;-71
2023/04/19 08:41:19;;;;;;;7.20;4.90;;;11.60;99.90;;;;;;5007106;28;20608;-70
2023/04/19 08:43:49;;;;;;;7.53;5.40;;;11.60;99.90;;;;;;4987384;28;20226;-71
2023/04/19 08:46:15;;;;;;;7.00;4.03;;;11.60;99.90;;;;;;4996655;28;20473;-69
2023/04/19 08:48:43;;;;;;;10.67;6.30;;;11.70;99.90;;;;;;4998977;28;20453;-70
2023/04/19 08:51:11;;;;;;;7.70;4.97;;;11.60;99.90;;;;;;5003185;28;20222;-69
2023/04/19 08:53:37;;;;;;;7.97;5.20;;;11.70;99.90;;;;;;5003078;28;20538;-69
2023/04/19 08:56:06;;;;;;;5.10;4.60;;;11.70;99.90;;;;;;4988294;28;20460;-70
2023/04/19 08:58:32;;;;;;;5.33;4.60;;;11.70;99.90;;;;;;4999940;28;20532;-71
2023/04/19 09:00:57;;;;;;;4.60;3.87;;;11.80;99.90;;;;;;4999985;28;20631;-67
2023/04/19 09:03:24;;;;;;;6.80;5.30;;;11.80;99.90;;;;;;4995743;28;20311;-72
2023/04/19 09:05:50;;;;;;;6.87;4.20;;;11.80;99.90;;;;;;4995681;28;20232;-71
2023/04/19 09:08:28;;;;;;;6.07;4.70;;;11.80;99.90;;;;;;5003561;28;20485;-71
2023/04/19 09:10:55;;;;;;;6.90;4.90;;;11.80;99.90;;;;;;4991333;28;20238;-70
2023/04/19 09:13:20;;;;;;;5.27;4.33;;;11.90;99.90;;;;;;5000159;28;20971;-71
2023/04/19 09:15:46;;;;;;;5.40;4.77;;;11.90;99.90;;;;;;5000636;28;20466;-71
2023/04/19 09:18:13;;;;;;;7.63;5.03;;;11.90;99.90;;;;;;5008722;28;20227;-74
2023/04/19 09:20:43;;;;;;;6.40;4.40;;;12.00;99.90;;;;;;5009072;28;20695;-72
2023/04/19 09:23:16;;;;;;;9.37;4.60;;;12.00;99.90;;;;;;4992127;28;20547;-71
2023/04/19 09:25:59;;;;;;;9.20;4.80;;;12.00;99.90;;;;;;4997942;28;20990;-71
2023/04/19 09:28:26;;;;;;;5.80;4.63;;;12.10;99.90;;;;;;5008266;28;20473;-70
2023/04/19 09:30:52;;;;;;;5.80;3.87;;;12.00;99.90;;;;;;5005310;28;20544;-71
2023/04/19 09:33:33;;;;;;;5.10;4.60;;;12.00;99.90;;;;;;5005352;28;20558;-72
2023/04/19 09:36:00;;;;;;;8.10;5.20;;;12.00;99.90;;;;;;5003699;28;20233;-71
2023/04/19 09:38:26;;;;;;;6.70;4.60;;;12.10;99.90;;;;;;5008986;28;20473;-71
2023/04/19 09:40:52;;;;;;;10.53;4.80;;;12.10;99.90;;;;;;5007734;28;20468;-71
2023/04/19 09:43:24;;;;;;;9.83;4.80;;;12.20;99.90;;;;;;5008360;28;20472;-70
2023/04/19 09:45:50;;;;;;;4.90;4.20;;;12.30;99.90;;;;;;5005453;28;20614;-71
2023/04/19 09:48:16;;;;;;;6.63;4.37;;;12.30;99.90;;;;;;5006168;28;20461;-71
2023/04/19 09:50:53;;;;;;;5.60;4.63;;;12.30;99.90;;;;;;5006249;28;21041;-71
2023/04/19 09:53:20;;;;;;;4.93;3.60;;;12.40;99.90;;;;;;5003331;28;20221;-70
2023/04/19 09:55:49;;;;;;;4.90;4.33;;;12.50;99.90;;;;;;5008655;28;20536;-71
2023/04/19 09:58:21;;;;;;;5.10;4.00;;;12.60;99.90;;;;;;5005051;28;20478;-71
2023/04/19 10:00:48;;;;;;;5.10;4.60;;;12.60;99.90;;;;;;5008838;28;20457;-71
2023/04/19 10:03:14;;;;;;;5.27;3.83;;;12.70;99.90;;;;;;5009538;28;20548;-71
2023/04/19 10:05:41;;;;;;;6.77;3.90;;;12.80;99.90;;;;;;5002538;28;20548;-71
2023/04/19 10:08:08;;;;;;;5.27;4.07;;;12.80;99.90;;;;;;5006328;28;20573;-71
2023/04/19 10:10:35;;;;;;;5.60;4.20;;;12.90;99.90;;;;;;5002410;28;20422;-70
2023/04/19 10:13:04;;;;;;;4.43;3.80;;;13.00;99.90;;;;;;5004691;28;20549;-70
2023/04/19 10:15:31;;;;;;;5.33;4.10;;;13.10;99.90;;;;;;5018409;28;21112;-71
2023/04/19 10:17:57;;;;;;;5.93;3.93;;;13.10;99.90;;;;;;5003786;28;20470;-71
2023/04/19 10:20:29;;;;;;;4.67;4.00;;;13.00;99.90;;;;;;5005962;28;20511;-71
2023/04/19 10:22:55;;;;;;;4.33;3.40;;;13.00;99.90;;;;;;5004948;28;20324;-71
2023/04/19 10:25:28;;;;;;;4.07;3.60;;;13.10;99.90;;;;;;5007545;28;20595;-71
2023/04/19 10:27:55;;;;;;;4.03;3.63;;;13.10;99.90;;;;;;5001610;28;20461;-71
2023/04/19 10:30:22;;;;;;;3.40;3.10;;;13.10;99.90;;;;;;5007508;28;21010;-70
2023/04/19 10:32:58;;;;;;;4.30;3.90;;;13.20;99.90;;;;;;5012403;28;20469;-72
2023/04/19 10:35:36;;;;;;;6.60;4.07;;;13.20;99.90;;;;;;5004935;28;20985;-70
2023/04/19 10:38:11;;;;;;;4.27;3.87;;;13.10;99.90;;;;;;5007112;28;20480;-71
2023/04/19 10:40:56;;;;;;;6.10;3.90;;;13.10;99.90;;;;;;5001983;28;20507;-70
2023/04/19 10:43:23;;;;;;;5.97;4.60;;;13.20;99.90;;;;;;5006059;28;20472;-72
2023/04/19 10:45:49;;;;;;;4.60;4.00;;;13.20;99.90;;;;;;5006848;28;20456;-71
2023/04/19 10:48:39;;;;;;;7.00;4.00;;;13.20;99.90;;;;;;4989321;28;20471;-71
2023/04/19 10:51:06;;;;;;;5.80;4.13;;;13.30;99.90;;;;;;5007426;28;20537;-71
2023/04/19 10:53:51;;;;;;;5.97;4.50;;;13.30;99.90;;;;;;5003367;28;20457;-72
2023/04/19 10:56:33;;;;;;;5.43;4.00;;;13.30;99.90;;;;;;5006825;28;20482;-71
2023/04/19 10:58:59;;;;;;;5.70;3.87;;;13.40;99.90;;;;;;5007336;28;20465;-71
2023/04/19 11:01:35;;;;;;;6.00;3.67;;;13.50;99.90;;;;;;5005715;28;20560;-70
2023/04/19 11:04:01;;;;;;;5.90;3.60;;;13.50;99.90;;;;;;5005094;28;20695;-69
2023/04/19 11:06:27;;;;;;;7.50;4.33;;;13.60;99.90;;;;;;5004315;28;20485;-72
2023/04/19 11:08:53;;;;;;;5.87;4.33;;;13.60;99.90;;;;;;4988777;28;20260;-71
2023/04/19 11:11:24;;;;;;;4.87;3.60;;;13.70;99.90;;;;;;5007286;28;20225;-71
2023/04/19 11:13:50;;;;;;;4.47;3.40;;;13.80;99.90;;;;;;5004148;28;20569;-71
2023/04/19 11:16:15;;;;;;;4.20;3.40;;;14.10;99.90;;;;;;4988420;28;20536;-71
2023/04/19 11:18:42;;;;;;;3.93;3.57;;;14.20;99.90;;;;;;5004893;28;20472;-69
2023/04/19 11:21:17;;;;;;;6.07;4.23;;;14.00;99.90;;;;;;5001742;28;20226;-72
2023/04/19 11:23:42;;;;;;;5.97;4.50;;;14.00;99.90;;;;;;4985146;28;20488;-71
2023/04/19 11:26:11;;;;;;;6.30;4.87;;;14.00;99.90;;;;;;4996755;28;20982;-70
2023/04/19 11:28:38;;;;;;;4.97;3.87;;;13.90;99.90;;;;;;5000310;28;20218;-70
2023/04/19 11:31:04;;;;;;;6.60;4.07;;;14.00;99.90;;;;;;4997848;28;20489;-70
2023/04/19 11:33:34;;;;;;;5.17;4.17;;;14.10;99.90;;;;;;4999701;28;20544;-70
2023/04/19 11:36:00;;;;;;;5.37;4.50;;;13.90;99.90;;;;;;4997045;28;20874;-69
2023/04/19 11:38:29;;;;;;;3.70;3.13;;;13.90;99.90;;;;;;5000148;28;20553;-69
2023/04/19 11:41:02;;;;;;;4.47;3.40;;;14.00;99.90;;;;;;4998006;28;20411;-70
2023/04/19 11:43:35;;;;;;;4.30;3.47;;;14.00;99.90;;;;;;5002671;28;20480;-70
2023/04/19 11:46:18;;;;;;;4.40;3.77;;;14.00;99.90;;;;;;5001011;28;20472;-69
2023/04/19 11:48:52;;;;;;;5.27;4.30;;;14.20;99.90;;;;;;5001675;28;20480;-71
2023/04/19 11:51:17;;;;;;;4.90;3.77;;;14.30;99.90;;;;;;4980767;28;20493;-71
2023/04/19 11:53:43;;;;;;;4.47;3.20;;;14.10;99.90;;;;;;4998035;28;20488;-71
2023/04/19 11:56:09;;;;;;;4.97;3.70;;;14.10;99.90;;;;;;5004541;28;20250;-71
2023/04/19 11:58:38;;;;;;;7.60;3.17;;;14.00;99.90;;;;;;5000928;28;20230;-69
2023/04/19 12:01:05;;;;;;;6.70;3.70;;;13.90;99.90;;;;;;4982066;28;20281;-69
2023/04/19 12:03:32;;;;;;;4.27;3.07;;;13.90;99.90;;;;;;4997692;28;20469;-71
2023/04/19 12:06:09;;;;;;;5.00;3.37;;;13.80;99.90;;;;;;4990233;28;20453;-70
2023/04/19 12:08:54;;;;;;;3.90;3.27;;;13.80;99.90;;;;;;4994451;28;20824;-71
2023/04/19 12:11:23;;;;;;;4.23;3.10;;;13.80;99.90;;;;;;4988451;28;20485;-71
2023/04/19 12:14:18;;;;;;;5.03;3.33;;;13.90;99.90;;;;;;5002683;28;20956;-71
2023/04/19 12:16:44;;;;;;;6.00;4.30;;;13.90;99.90;;;;;;5003199;28;20485;-70
2023/04/19 12:19:16;;;;;;;4.37;3.70;;;14.10;99.90;;;;;;5004497;28;20532;-70
2023/04/19 12:21:42;;;;;;;4.30;3.90;;;14.20;99.90;;;;;;4998954;28;20461;-69
2023/04/19 12:24:08;;;;;;;4.77;4.20;;;14.10;99.90;;;;;;5007503;28;20538;-71
2023/04/19 12:26:34;;;;;;;4.97;3.57;;;14.10;99.90;;;;;;5001458;28;20532;-71
2023/04/19 12:29:02;;;;;;;7.63;3.80;;;14.20;99.90;;;;;;4998447;28;20472;-71
2023/04/19 12:31:30;;;;;;;4.40;3.10;;;14.20;99.90;;;;;;5001827;28;20481;-70
2023/04/19 12:33:56;;;;;;;4.67;3.40;;;14.30;99.90;;;;;;4997625;28;20473;-70
2023/04/19 12:36:22;;;;;;;4.40;4.00;;;14.30;99.90;;;;;;4993831;28;20564;-70
2023/04/19 12:38:47;;;;;;;3.00;2.70;;;14.10;99.90;;;;;;4994698;28;20229;-70
2023/04/19 12:41:13;;;;;;;4.20;2.97;;;14.30;99.90;;;;;;4984302;28;20261;-70
2023/04/19 12:43:39;;;;;;;3.73;2.63;;;14.30;99.90;;;;;;5003148;28;20226;-71
2023/04/19 12:46:04;;;;;;;4.50;3.10;;;14.20;99.90;;;;;;4995426;28;20276;-69
2023/04/19 12:48:30;;;;;;;5.70;3.00;;;14.00;99.90;;;;;;5002458;28;20229;-70